CFVMG CYHM-CYHM
Flight info
| Callsign | CFVMG |
|---|---|
| Flight time | 0h 36m |
| Altitude | 3500 |
| Route | SKYWAY BRIDGE FORD PORT CREDIT HUMBER BAY THE BEACHES |
| Aircraft | T6/L-VGD/C |
Departure
| Time | 2026-04-22 20:10 |
|---|---|
| Airport | John C. Munro Hamilton International Airport (CYHM) |
Arrival
| Time | 2026-04-22 20:46 |
|---|---|
| Airport | John C. Munro Hamilton International Airport (CYHM) |
| Time | Latitude | Longitude | Altitude | Speed | Heading |
|---|---|---|---|---|---|
| 2026-04-22 20:04 | 43.16177 | -79.92410 | 773 ft | 6 kts | 354° |
| 2026-04-22 20:04 | 43.16230 | -79.92388 | 773 ft | 9 kts | 20° |
| 2026-04-22 20:05 | 43.16296 | -79.92368 | 773 ft | 10 kts | 4° |
| 2026-04-22 20:05 | 43.16366 | -79.92370 | 773 ft | 10 kts | 356° |
| 2026-04-22 20:05 | 43.16439 | -79.92386 | 773 ft | 12 kts | 345° |
| 2026-04-22 20:05 | 43.16509 | -79.92423 | 773 ft | 12 kts | 333° |
| 2026-04-22 20:06 | 43.16581 | -79.92481 | 773 ft | 14 kts | 325° |
| 2026-04-22 20:06 | 43.16686 | -79.92565 | 773 ft | 19 kts | 331° |
| 2026-04-22 20:06 | 43.16812 | -79.92670 | 773 ft | 22 kts | 328° |
| 2026-04-22 20:06 | 43.16947 | -79.92774 | 771 ft | 22 kts | 330° |
| 2026-04-22 20:07 | 43.17079 | -79.92884 | 770 ft | 22 kts | 327° |
| 2026-04-22 20:07 | 43.17153 | -79.92943 | 774 ft | 19 kts | 327° |
| 2026-04-22 20:08 | 43.17252 | -79.93022 | 775 ft | 26 kts | 333° |
| 2026-04-22 20:08 | 43.17391 | -79.93167 | 775 ft | 23 kts | 300° |
| 2026-04-22 20:08 | 43.17434 | -79.93351 | 775 ft | 18 kts | 285° |
| 2026-04-22 20:08 | 43.17462 | -79.93504 | 775 ft | 18 kts | 287° |
| 2026-04-22 20:09 | 43.17520 | -79.93670 | 775 ft | 19 kts | 334° |
| 2026-04-22 20:09 | 43.17641 | -79.93651 | 774 ft | 16 kts | 18° |
| 2026-04-22 20:09 | 43.17663 | -79.93555 | 774 ft | 9 kts | 106° |
| 2026-04-22 20:09 | 43.17590 | -79.93249 | 776 ft | 61 kts | 109° |
| 2026-04-22 20:10 | 43.17405 | -79.92468 | 856 ft | 103 kts | 107° |
| 2026-04-22 20:10 | 43.17187 | -79.91421 | 1202 ft | 120 kts | 105° |
| 2026-04-22 20:10 | 43.17162 | -79.90333 | 1681 ft | 125 kts | 53° |
| 2026-04-22 20:10 | 43.17915 | -79.89699 | 2060 ft | 133 kts | 21° |
| 2026-04-22 20:11 | 43.18856 | -79.89137 | 2119 ft | 159 kts | 18° |
| 2026-04-22 20:11 | 43.19887 | -79.88561 | 2451 ft | 158 kts | 17° |
| 2026-04-22 20:11 | 43.20906 | -79.88134 | 2909 ft | 150 kts | 7° |
| 2026-04-22 20:11 | 43.21910 | -79.87535 | 3026 ft | 167 kts | 31° |
| 2026-04-22 20:12 | 43.22847 | -79.86504 | 3137 ft | 174 kts | 36° |
| 2026-04-22 20:12 | 43.23792 | -79.85468 | 3193 ft | 182 kts | 35° |
| 2026-04-22 20:12 | 43.24444 | -79.84729 | 3214 ft | 183 kts | 38° |
| 2026-04-22 20:12 | 43.25763 | -79.83128 | 2972 ft | 186 kts | 40° |
| 2026-04-22 20:13 | 43.26696 | -79.81950 | 2988 ft | 180 kts | 40° |
| 2026-04-22 20:13 | 43.27600 | -79.80728 | 2870 ft | 183 kts | 45° |
| 2026-04-22 20:13 | 43.28410 | -79.79358 | 2637 ft | 188 kts | 49° |
| 2026-04-22 20:13 | 43.29241 | -79.77999 | 2518 ft | 186 kts | 44° |
| 2026-04-22 20:14 | 43.30216 | -79.76889 | 2313 ft | 180 kts | 32° |
| 2026-04-22 20:14 | 43.31252 | -79.75913 | 1951 ft | 182 kts | 31° |
| 2026-04-22 20:14 | 43.32290 | -79.74953 | 1670 ft | 177 kts | 29° |
| 2026-04-22 20:14 | 43.33356 | -79.74024 | 1588 ft | 185 kts | 29° |
| 2026-04-22 20:15 | 43.34459 | -79.73073 | 1536 ft | 189 kts | 28° |
| 2026-04-22 20:15 | 43.35576 | -79.72104 | 1489 ft | 190 kts | 30° |
| 2026-04-22 20:15 | 43.36681 | -79.71115 | 1471 ft | 189 kts | 30° |
| 2026-04-22 20:15 | 43.37788 | -79.70130 | 1430 ft | 190 kts | 28° |
| 2026-04-22 20:16 | 43.38946 | -79.69243 | 1360 ft | 190 kts | 23° |
| 2026-04-22 20:16 | 43.40157 | -79.68446 | 1146 ft | 196 kts | 22° |
| 2026-04-22 20:16 | 43.41391 | -79.67664 | 959 ft | 196 kts | 21° |
| 2026-04-22 20:16 | 43.42637 | -79.66926 | 822 ft | 193 kts | 20° |
| 2026-04-22 20:17 | 43.43816 | -79.66134 | 888 ft | 186 kts | 32° |
| 2026-04-22 20:17 | 43.44843 | -79.65090 | 989 ft | 183 kts | 33° |
| 2026-04-22 20:17 | 43.45881 | -79.64031 | 953 ft | 187 kts | 33° |
| 2026-04-22 20:17 | 43.46927 | -79.62960 | 947 ft | 188 kts | 36° |
| 2026-04-22 20:18 | 43.47942 | -79.61846 | 977 ft | 187 kts | 36° |
| 2026-04-22 20:18 | 43.48953 | -79.60716 | 970 ft | 187 kts | 36° |
| 2026-04-22 20:18 | 43.49874 | -79.59429 | 927 ft | 190 kts | 46° |
| 2026-04-22 20:18 | 43.50742 | -79.58069 | 962 ft | 188 kts | 47° |
| 2026-04-22 20:19 | 43.51305 | -79.57161 | 972 ft | 188 kts | 48° |
| 2026-04-22 20:19 | 43.52411 | -79.55269 | 956 ft | 190 kts | 50° |
| 2026-04-22 20:19 | 43.52942 | -79.54314 | 965 ft | 189 kts | 51° |
| 2026-04-22 20:19 | 43.53729 | -79.52859 | 981 ft | 189 kts | 52° |
| 2026-04-22 20:20 | 43.54493 | -79.51382 | 986 ft | 190 kts | 53° |
| 2026-04-22 20:20 | 43.55221 | -79.49861 | 980 ft | 190 kts | 56° |
| 2026-04-22 20:20 | 43.55915 | -79.48308 | 989 ft | 190 kts | 56° |
| 2026-04-22 20:20 | 43.56604 | -79.46754 | 999 ft | 190 kts | 57° |
| 2026-04-22 20:21 | 43.57266 | -79.45177 | 1004 ft | 190 kts | 58° |
| 2026-04-22 20:21 | 43.57936 | -79.43616 | 1050 ft | 188 kts | 56° |
| 2026-04-22 20:21 | 43.58616 | -79.42097 | 1120 ft | 188 kts | 57° |
| 2026-04-22 20:21 | 43.59315 | -79.40558 | 1136 ft | 188 kts | 54° |
| 2026-04-22 20:22 | 43.60029 | -79.39051 | 1169 ft | 189 kts | 56° |
| 2026-04-22 20:22 | 43.60738 | -79.37513 | 1169 ft | 190 kts | 56° |
| 2026-04-22 20:22 | 43.61425 | -79.35958 | 1197 ft | 190 kts | 57° |
| 2026-04-22 20:22 | 43.62089 | -79.34368 | 1203 ft | 189 kts | 59° |
| 2026-04-22 20:23 | 43.62680 | -79.32789 | 1383 ft | 186 kts | 62° |
| 2026-04-22 20:23 | 43.63221 | -79.32718 | 1606 ft | 157 kts | 246° |
| 2026-04-22 20:23 | 43.62887 | -79.34219 | 1517 ft | 157 kts | 269° |
| 2026-04-22 20:23 | 43.63095 | -79.35561 | 1140 ft | 156 kts | 286° |
| 2026-04-22 20:24 | 43.63266 | -79.37112 | 890 ft | 174 kts | 271° |
| 2026-04-22 20:24 | 43.63117 | -79.38836 | 475 ft | 186 kts | 253° |
| 2026-04-22 20:24 | 43.62732 | -79.40448 | 766 ft | 144 kts | 248° |
| 2026-04-22 20:24 | 43.62248 | -79.41688 | 946 ft | 157 kts | 238° |
| 2026-04-22 20:25 | 43.61648 | -79.43038 | 930 ft | 168 kts | 241° |
| 2026-04-22 20:25 | 43.61036 | -79.44419 | 942 ft | 172 kts | 239° |
| 2026-04-22 20:25 | 43.60370 | -79.45809 | 897 ft | 174 kts | 237° |
| 2026-04-22 20:25 | 43.59693 | -79.47182 | 948 ft | 172 kts | 238° |
| 2026-04-22 20:26 | 43.59056 | -79.48568 | 987 ft | 171 kts | 241° |
| 2026-04-22 20:26 | 43.58459 | -79.49969 | 972 ft | 172 kts | 241° |
| 2026-04-22 20:26 | 43.57877 | -79.51408 | 997 ft | 172 kts | 244° |
| 2026-04-22 20:26 | 43.57338 | -79.52875 | 984 ft | 173 kts | 238° |
| 2026-04-22 20:27 | 43.56443 | -79.54046 | 779 ft | 183 kts | 216° |
| 2026-04-22 20:27 | 43.55340 | -79.54879 | 806 ft | 177 kts | 209° |
| 2026-04-22 20:27 | 43.54260 | -79.55641 | 902 ft | 173 kts | 211° |
| 2026-04-22 20:27 | 43.53213 | -79.56484 | 889 ft | 176 kts | 216° |
| 2026-04-22 20:28 | 43.52230 | -79.57484 | 866 ft | 175 kts | 220° |
| 2026-04-22 20:28 | 43.51282 | -79.58494 | 969 ft | 170 kts | 224° |
| 2026-04-22 20:28 | 43.50390 | -79.59537 | 1084 ft | 169 kts | 220° |
| 2026-04-22 20:28 | 43.49437 | -79.60547 | 966 ft | 176 kts | 226° |
| 2026-04-22 20:29 | 43.48555 | -79.61637 | 1201 ft | 152 kts | 214° |
| 2026-04-22 20:29 | 43.47591 | -79.62419 | 1017 ft | 171 kts | 214° |
| 2026-04-22 20:29 | 43.46616 | -79.63366 | 1010 ft | 173 kts | 220° |
| 2026-04-22 20:29 | 43.45629 | -79.64329 | 997 ft | 175 kts | 216° |
| 2026-04-22 20:30 | 43.44588 | -79.65213 | 980 ft | 176 kts | 214° |
| 2026-04-22 20:30 | 43.43544 | -79.66089 | 1002 ft | 175 kts | 215° |
| 2026-04-22 20:30 | 43.42547 | -79.67022 | 1001 ft | 163 kts | 219° |
| 2026-04-22 20:30 | 43.41731 | -79.67768 | 1046 ft | 119 kts | 216° |
| 2026-04-22 20:31 | 43.41052 | -79.68335 | 1065 ft | 127 kts | 214° |
| 2026-04-22 20:31 | 43.40219 | -79.68995 | 1249 ft | 142 kts | 212° |
| 2026-04-22 20:31 | 43.39364 | -79.69661 | 1565 ft | 145 kts | 214° |
| 2026-04-22 20:31 | 43.38456 | -79.70460 | 1640 ft | 156 kts | 217° |
| 2026-04-22 20:32 | 43.37576 | -79.71300 | 1851 ft | 157 kts | 220° |
| 2026-04-22 20:32 | 43.36682 | -79.72232 | 2001 ft | 160 kts | 221° |
| 2026-04-22 20:32 | 43.35808 | -79.73179 | 2157 ft | 161 kts | 221° |
| 2026-04-22 20:32 | 43.34910 | -79.74165 | 2132 ft | 169 kts | 221° |
| 2026-04-22 20:33 | 43.34014 | -79.75177 | 2204 ft | 167 kts | 223° |
| 2026-04-22 20:33 | 43.33047 | -79.76045 | 2299 ft | 169 kts | 201° |
| 2026-04-22 20:33 | 43.31908 | -79.76423 | 2450 ft | 168 kts | 198° |
| 2026-04-22 20:33 | 43.30784 | -79.76864 | 2549 ft | 168 kts | 201° |
| 2026-04-22 20:34 | 43.29652 | -79.77303 | 2608 ft | 171 kts | 197° |
| 2026-04-22 20:34 | 43.28492 | -79.77682 | 2673 ft | 171 kts | 198° |
| 2026-04-22 20:34 | 43.27338 | -79.78114 | 2726 ft | 172 kts | 201° |
| 2026-04-22 20:34 | 43.26197 | -79.78570 | 2842 ft | 170 kts | 199° |
| 2026-04-22 20:35 | 43.25065 | -79.78944 | 2907 ft | 171 kts | 198° |
| 2026-04-22 20:35 | 43.23813 | -79.79235 | 2712 ft | 182 kts | 184° |
| 2026-04-22 20:35 | 43.22597 | -79.78883 | 2690 ft | 177 kts | 162° |
| 2026-04-22 20:35 | 43.21498 | -79.78152 | 2659 ft | 175 kts | 154° |
| 2026-04-22 20:36 | 43.20454 | -79.77318 | 2684 ft | 171 kts | 152° |
| 2026-04-22 20:36 | 43.19631 | -79.76577 | 3651 ft | 67 kts | 169° |
| 2026-04-22 20:36 | 43.19630 | -79.76463 | 3338 ft | 155 kts | 89° |
| 2026-04-22 20:36 | 43.18740 | -79.75607 | 2875 ft | 181 kts | 166° |
| 2026-04-22 20:37 | 43.17426 | -79.75093 | 2645 ft | 119 kts | 172° |
| 2026-04-22 20:37 | 43.17426 | -79.75048 | 2518 ft | 176 kts | 152° |
| 2026-04-22 20:37 | 43.17215 | -79.75485 | 2462 ft | 180 kts | 28° |
| 2026-04-22 20:37 | 43.17009 | -79.73729 | 1740 ft | 178 kts | 113° |
| 2026-04-22 20:38 | 43.16778 | -79.72161 | 1890 ft | 177 kts | 104° |
| 2026-04-22 20:38 | 43.16425 | -79.70611 | 2171 ft | 156 kts | 102° |
| 2026-04-22 20:38 | 43.16114 | -79.69199 | 2372 ft | 15 kts | 276° |
| 2026-04-22 20:38 | 43.16418 | -79.70109 | 2366 ft | 143 kts | 292° |
| 2026-04-22 20:39 | 43.16876 | -79.71457 | 2265 ft | 163 kts | 296° |
| 2026-04-22 20:39 | 43.16697 | -79.72251 | 2576 ft | 162 kts | 131° |
| 2026-04-22 20:39 | 43.16212 | -79.70639 | 2042 ft | 170 kts | 115° |
| 2026-04-22 20:39 | 43.16070 | -79.70246 | 3283 ft | 16 kts | 302° |
| 2026-04-22 20:40 | 43.15600 | -79.69716 | 1530 ft | 187 kts | 108° |
| 2026-04-22 20:40 | 43.15214 | -79.68191 | 1571 ft | 153 kts | 117° |
| 2026-04-22 20:40 | 43.15141 | -79.67241 | 2191 ft | 94 kts | 347° |
| 2026-04-22 20:40 | 43.15520 | -79.68397 | 1703 ft | 155 kts | 288° |
| 2026-04-22 20:41 | 43.15800 | -79.69791 | 1990 ft | 150 kts | 274° |
| 2026-04-22 20:41 | 43.15921 | -79.71162 | 2456 ft | 140 kts | 287° |
| 2026-04-22 20:41 | 43.16292 | -79.72442 | 2531 ft | 146 kts | 292° |
| 2026-04-22 20:41 | 43.16706 | -79.73676 | 2519 ft | 140 kts | 293° |
| 2026-04-22 20:42 | 43.17074 | -79.74917 | 2569 ft | 145 kts | 286° |
| 2026-04-22 20:42 | 43.17357 | -79.76257 | 2679 ft | 145 kts | 284° |
| 2026-04-22 20:42 | 43.17596 | -79.77641 | 2716 ft | 157 kts | 283° |
| 2026-04-22 20:42 | 43.17897 | -79.79111 | 2745 ft | 162 kts | 284° |
| 2026-04-22 20:43 | 43.18194 | -79.80593 | 2800 ft | 163 kts | 285° |
| 2026-04-22 20:43 | 43.18516 | -79.82108 | 2784 ft | 168 kts | 286° |
| 2026-04-22 20:43 | 43.18822 | -79.83673 | 2737 ft | 172 kts | 283° |
| 2026-04-22 20:43 | 43.19105 | -79.85283 | 2639 ft | 175 kts | 283° |
| 2026-04-22 20:44 | 43.19403 | -79.86871 | 2686 ft | 168 kts | 284° |
| 2026-04-22 20:44 | 43.19700 | -79.88412 | 2672 ft | 170 kts | 283° |
| 2026-04-22 20:44 | 43.19928 | -79.90039 | 2506 ft | 174 kts | 278° |
| 2026-04-22 20:44 | 43.20106 | -79.91684 | 2390 ft | 174 kts | 278° |
| 2026-04-22 20:45 | 43.20290 | -79.93283 | 2505 ft | 169 kts | 279° |
| 2026-04-22 20:45 | 43.20404 | -79.94817 | 2477 ft | 126 kts | 257° |
| 2026-04-22 20:45 | 43.19917 | -79.95499 | 2207 ft | 105 kts | 209° |
| 2026-04-22 20:45 | 43.19200 | -79.95808 | 1940 ft | 111 kts | 197° |
| 2026-04-22 20:46 | 43.18017 | -79.95101 | 871 ft | 103 kts | 109° |
| 2026-04-22 20:46 | 43.17833 | -79.94308 | 780 ft | 72 kts | 110° |
| 2026-04-22 20:46 | 43.17699 | -79.93771 | 776 ft | 48 kts | 99° |
| 2026-04-22 20:47 | 43.17626 | -79.93460 | 774 ft | 24 kts | 113° |
| 2026-04-22 20:47 | 43.17566 | -79.93290 | 775 ft | 17 kts | 135° |
| 2026-04-22 20:47 | 43.17484 | -79.93197 | 775 ft | 17 kts | 152° |
| 2026-04-22 20:47 | 43.17367 | -79.93106 | 775 ft | 22 kts | 142° |
| 2026-04-22 20:48 | 43.17220 | -79.92998 | 775 ft | 25 kts | 147° |
| 2026-04-22 20:48 | 43.17056 | -79.92858 | 770 ft | 30 kts | 148° |
| 2026-04-22 20:48 | 43.16869 | -79.92709 | 772 ft | 32 kts | 150° |
| 2026-04-22 20:48 | 43.16675 | -79.92558 | 773 ft | 33 kts | 149° |
| 2026-04-22 20:49 | 43.16498 | -79.92424 | 773 ft | 25 kts | 152° |
| 2026-04-22 20:49 | 43.16358 | -79.92407 | 773 ft | 18 kts | 197° |
| 2026-04-22 20:49 | 43.16259 | -79.92446 | 773 ft | 12 kts | 196° |
| 2026-04-22 20:49 | 43.16190 | -79.92472 | 773 ft | 10 kts | 191° |
| 2026-04-22 20:50 | 43.16130 | -79.92447 | 773 ft | 10 kts | 114° |
| 2026-04-22 20:50 | 43.16124 | -79.92410 | 773 ft | 0 kts | 70° |